createdAt,value
2019-04-04T00:00:32.293Z,974.41
2019-04-04T00:01:32.211Z,974.41
2019-04-04T00:02:32.130Z,974.43
2019-04-04T00:03:32.053Z,974.40
2019-04-04T00:04:31.970Z,974.34
2019-04-04T00:05:31.889Z,974.31
2019-04-04T00:06:31.807Z,974.33
2019-04-04T00:07:31.733Z,974.30
2019-04-04T00:08:31.904Z,974.30
2019-04-04T00:09:33.145Z,974.27
2019-04-04T00:10:32.857Z,974.20
2019-04-04T00:11:31.404Z,974.23
2019-04-04T00:12:31.323Z,974.22
2019-04-04T00:13:31.241Z,974.26
2019-04-04T00:14:31.161Z,974.25
2019-04-04T00:15:31.082Z,974.26
2019-04-04T00:16:31.001Z,974.28
2019-04-04T00:17:30.920Z,974.29
2019-04-04T00:18:30.839Z,974.30
2019-04-04T00:19:30.759Z,974.29
2019-04-04T00:20:31.766Z,974.30
2019-04-04T00:21:32.019Z,974.31
2019-04-04T00:22:30.515Z,974.31
2019-04-04T00:23:30.436Z,974.35
2019-04-04T00:24:30.354Z,974.36
2019-04-04T00:25:30.273Z,974.37
2019-04-04T00:26:30.194Z,974.40
2019-04-04T00:27:30.121Z,974.35
2019-04-04T00:28:30.032Z,974.29
2019-04-04T00:29:29.950Z,974.26
2019-04-04T00:30:29.871Z,974.28
2019-04-04T00:31:29.791Z,974.23
2019-04-04T00:32:29.796Z,974.21
2019-04-04T00:33:29.628Z,974.19
2019-04-04T00:34:29.547Z,974.15
2019-04-04T00:35:31.144Z,974.11
2019-04-04T00:36:29.386Z,974.11
2019-04-04T00:37:29.305Z,974.13
2019-04-04T00:38:29.225Z,974.06
2019-04-04T00:39:29.144Z,974.06
2019-04-04T00:40:29.064Z,974.02
2019-04-04T00:41:28.996Z,974.03
2019-04-04T00:42:28.902Z,973.98
2019-04-04T00:43:28.822Z,973.96
2019-04-04T00:44:28.742Z,973.96
2019-04-04T00:45:29.440Z,973.97
2019-04-04T00:46:29.054Z,973.95
2019-04-04T00:47:28.500Z,974.00
2019-04-04T00:48:28.420Z,973.93
2019-04-04T00:49:28.338Z,973.98
2019-04-04T00:50:28.260Z,974.03
2019-04-04T00:51:28.181Z,974.03
2019-04-04T00:52:28.098Z,974.06
2019-04-04T00:53:28.016Z,974.07
2019-04-04T00:54:27.959Z,974.09
2019-04-04T00:55:27.905Z,974.12
2019-04-04T00:56:27.776Z,974.10
2019-04-04T00:57:27.693Z,974.09
2019-04-04T00:58:27.614Z,974.09
2019-04-04T00:59:27.533Z,974.08
2019-04-04T01:00:27.453Z,974.08
2019-04-04T01:01:27.371Z,974.13
2019-04-04T01:02:27.914Z,974.22
2019-04-04T01:03:28.085Z,974.25
2019-04-04T01:04:27.131Z,974.22
2019-04-04T01:05:27.089Z,974.24
2019-04-04T01:06:26.968Z,974.20
2019-04-04T01:07:26.888Z,974.19
2019-04-04T01:08:26.810Z,974.20
2019-04-04T01:09:26.727Z,974.18
2019-04-04T01:10:26.646Z,974.13
2019-04-04T01:11:26.569Z,974.11
2019-04-04T01:12:26.489Z,974.02
2019-04-04T01:13:27.734Z,974.00
2019-04-04T01:14:28.900Z,973.93
2019-04-04T01:15:26.245Z,973.89
2019-04-04T01:16:26.163Z,973.86
2019-04-04T01:17:26.081Z,973.87
2019-04-04T01:18:27.215Z,973.88
2019-04-04T01:19:25.921Z,973.91
2019-04-04T01:20:25.845Z,973.90
2019-04-04T01:21:26.265Z,973.85
2019-04-04T01:22:28.301Z,973.88
2019-04-04T15:41:17.507Z,974.70
